Terminal Aerodrome Forecast
Issued by NWS Grand Forks, ND

Home | Current Version | Previous Version | Text Only | Print | Product List | Glossary On
Versions: 1 2 3 4 5 6 7 8 9 10 11 12 13 14 15 16 17 18
375
FTUS43 KFGF 231728
TAFFAR
TAF
KFAR 231728Z 2318/2418 27006KT P6SM OVC035
      TEMPO 2318/2321 OVC025
     FM232100 VRB06KT P6SM BKN025
     FM240800 10004KT P6SM OVC015
     FM241400 05005KT 4SM BR OVC010=

USA.gov is the U.S. government's official web portal to all federal, state and local government web resources and services.